Time;durP1;ratioP1;P1;durP2;ratioP2;P2;SDS_P1;SDS_P2;PMS_P1;PMS_P2;Temp;Humidity;BMP_temperature;BMP_pressure;BME280_temperature;BME280_humidity;BME280_pressure;Samples;Min_cycle;Max_cycle;Signal;HPM_P1;HPM_P2
2020/12/01 00:01:50;;;;;;;26.53;15.13;;;-3.90;99.90;;;;;;5011894;28;20237;-78
2020/12/01 00:04:18;;;;;;;25.13;14.67;;;-3.90;99.90;;;;;;5010939;28;20208;-78
2020/12/01 00:06:45;;;;;;;22.50;14.27;;;-3.90;99.90;;;;;;5009581;28;20208;-78
2020/12/01 00:09:14;;;;;;;25.37;14.00;;;-4.00;99.90;;;;;;5011312;28;20212;-78
2020/12/01 00:11:40;;;;;;;21.20;13.90;;;-4.00;99.90;;;;;;5010901;28;20220;-78
2020/12/01 00:14:07;;;;;;;24.70;13.67;;;-4.00;99.90;;;;;;5009836;28;20567;-78
2020/12/01 00:16:34;;;;;;;21.27;13.80;;;-4.00;99.90;;;;;;5011656;28;20447;-78
2020/12/01 00:19:01;;;;;;;23.83;14.07;;;-4.00;99.90;;;;;;5011221;28;20201;-78
2020/12/01 00:21:28;;;;;;;25.30;14.47;;;-4.00;99.90;;;;;;5008244;28;20306;-78
2020/12/01 00:23:55;;;;;;;22.67;14.87;;;-4.00;99.90;;;;;;5011083;28;20232;-78
2020/12/01 00:26:22;;;;;;;23.53;14.77;;;-4.00;99.90;;;;;;5013192;28;20440;-77
2020/12/01 00:28:49;;;;;;;28.63;14.47;;;-4.00;99.90;;;;;;5010176;28;20662;-78
2020/12/01 00:31:17;;;;;;;27.10;14.53;;;-4.00;99.90;;;;;;5011575;28;20739;-77
2020/12/01 00:33:44;;;;;;;24.17;15.00;;;-4.00;99.90;;;;;;5025642;28;20204;-78
2020/12/01 00:36:11;;;;;;;24.93;15.30;;;-4.10;99.90;;;;;;5032465;28;20627;-78
2020/12/01 00:38:40;;;;;;;24.90;13.70;;;-4.00;99.90;;;;;;5013284;28;20205;-78
2020/12/01 00:41:08;;;;;;;24.33;14.10;;;-4.10;99.90;;;;;;5013652;28;20665;-78
2020/12/01 00:43:34;;;;;;;24.57;14.77;;;-4.10;99.90;;;;;;5015288;28;20251;-78
2020/12/01 00:46:01;;;;;;;21.43;13.83;;;-4.10;99.90;;;;;;5013238;28;20200;-78
2020/12/01 00:48:28;;;;;;;28.27;15.03;;;-4.10;99.90;;;;;;5015833;28;20463;-78
2020/12/01 00:50:55;;;;;;;21.63;13.90;;;-4.20;99.90;;;;;;5015127;28;20201;-78
2020/12/01 00:53:21;;;;;;;25.73;14.80;;;-4.20;99.90;;;;;;5013790;28;20232;-78
2020/12/01 00:55:48;;;;;;;25.10;14.70;;;-4.20;99.90;;;;;;5013006;28;20211;-78
2020/12/01 00:58:15;;;;;;;23.17;14.67;;;-4.20;99.90;;;;;;5002401;28;20216;-78
2020/12/01 01:00:42;;;;;;;26.17;15.23;;;-4.20;99.90;;;;;;5014601;28;20436;-78
2020/12/01 01:03:10;;;;;;;26.70;16.07;;;-4.20;99.90;;;;;;5016517;28;20486;-78
2020/12/01 01:05:37;;;;;;;23.80;13.70;;;-4.20;99.90;;;;;;5030411;28;20755;-78
2020/12/01 01:08:04;;;;;;;30.37;14.27;;;-4.20;99.90;;;;;;5029394;28;20207;-78
2020/12/01 01:10:33;;;;;;;27.63;16.10;;;-4.20;99.90;;;;;;5032184;28;20849;-78
2020/12/01 01:13:01;;;;;;;26.60;15.20;;;-4.20;99.90;;;;;;5034102;28;20614;-78
2020/12/01 01:15:30;;;;;;;24.53;13.90;;;-4.20;99.90;;;;;;5030911;28;20719;-78
2020/12/01 01:17:58;;;;;;;21.57;13.70;;;-4.20;99.90;;;;;;5032888;28;20212;-78
2020/12/01 01:20:27;;;;;;;24.23;14.07;;;-4.20;99.90;;;;;;5032576;28;20208;-78
2020/12/01 01:22:55;;;;;;;26.57;14.80;;;-4.30;99.90;;;;;;5030747;28;20212;-78
2020/12/01 01:25:23;;;;;;;22.30;14.43;;;-4.30;99.90;;;;;;5033672;28;20207;-78
2020/12/01 01:27:50;;;;;;;27.17;15.20;;;-4.30;99.90;;;;;;5033207;28;20192;-78
2020/12/01 01:30:23;;;;;;;21.87;13.70;;;-4.30;99.90;;;;;;5031086;28;20207;-78
2020/12/01 01:32:50;;;;;;;23.37;13.90;;;-4.30;99.90;;;;;;5028985;28;20646;-78
2020/12/01 01:35:17;;;;;;;23.33;14.53;;;-4.30;99.90;;;;;;5013191;28;20455;-78
2020/12/01 01:37:44;;;;;;;26.57;14.13;;;-4.40;99.90;;;;;;5011821;28;20613;-78
2020/12/01 01:40:25;;;;;;;24.60;13.60;;;-4.40;99.90;;;;;;5012356;28;20502;-78
2020/12/01 01:42:52;;;;;;;24.10;13.17;;;-4.40;99.90;;;;;;5013549;28;20467;-78
2020/12/01 01:45:42;;;;;;;22.70;13.37;;;-4.30;99.90;;;;;;5013299;28;20436;-78
2020/12/01 01:48:18;;;;;;;26.00;14.57;;;-4.40;99.90;;;;;;5013547;28;20444;-78
2020/12/01 01:51:06;;;;;;;24.33;14.07;;;-4.40;99.90;;;;;;5010958;28;20877;-78
2020/12/01 01:53:38;;;;;;;26.43;13.90;;;-4.40;99.90;;;;;;5014249;28;20836;-78
2020/12/01 01:56:12;;;;;;;22.37;13.90;;;-4.40;99.90;;;;;;5013254;28;20786;-78
2020/12/01 01:58:41;;;;;;;24.03;13.80;;;-4.40;99.90;;;;;;5011439;28;20456;-78
2020/12/01 02:01:18;;;;;;;20.93;12.20;;;-4.50;99.90;;;;;;5013924;28;20460;-78
2020/12/01 02:03:48;;;;;;;20.40;12.67;;;-4.50;99.90;;;;;;5012004;28;20990;-78
2020/12/01 02:06:17;;;;;;;22.07;13.57;;;-4.50;99.90;;;;;;5011571;28;20821;-78
2020/12/01 02:08:50;;;;;;;23.17;13.40;;;-4.50;99.90;;;;;;5014410;28;20456;-78
2020/12/01 02:11:18;;;;;;;21.70;13.07;;;-4.50;99.90;;;;;;5012972;28;20416;-78
2020/12/01 02:14:11;;;;;;;24.47;13.90;;;-4.50;99.90;;;;;;5012005;28;20469;-78
2020/12/01 02:16:46;;;;;;;22.10;13.23;;;-4.50;99.90;;;;;;5013149;28;20421;-78
2020/12/01 02:19:21;;;;;;;24.63;13.97;;;-4.50;99.90;;;;;;5013503;28;20490;-78
2020/12/01 02:21:48;;;;;;;20.60;12.50;;;-4.50;99.90;;;;;;5012929;28;20424;-78
2020/12/01 02:24:21;;;;;;;23.47;12.23;;;-4.50;99.90;;;;;;5012585;28;20542;-78
2020/12/01 02:26:56;;;;;;;20.93;12.37;;;-4.50;99.90;;;;;;5014214;28;20452;-78
2020/12/01 02:29:32;;;;;;;23.33;13.10;;;-4.60;99.90;;;;;;5011790;28;20866;-78
2020/12/01 02:32:00;;;;;;;24.43;13.47;;;-4.60;99.90;;;;;;5012559;28;20795;-78
2020/12/01 02:34:35;;;;;;;22.10;13.20;;;-4.60;99.90;;;;;;5030122;28;20457;-78
2020/12/01 02:37:03;;;;;;;20.53;12.90;;;-4.60;99.90;;;;;;5031997;28;20501;-78
2020/12/01 02:39:31;;;;;;;22.03;13.07;;;-4.60;99.90;;;;;;5032619;28;20443;-78
2020/12/01 02:42:03;;;;;;;21.07;12.13;;;-4.60;99.90;;;;;;5030111;28;20489;-78
2020/12/01 02:44:30;;;;;;;21.87;12.53;;;-4.60;99.90;;;;;;5030506;28;20439;-78
2020/12/01 02:47:00;;;;;;;19.27;11.67;;;-4.70;99.90;;;;;;5018321;28;20205;-78
2020/12/01 02:49:27;;;;;;;21.37;12.70;;;-4.70;99.90;;;;;;5010072;28;20460;-77
2020/12/01 02:51:54;;;;;;;21.43;12.23;;;-4.70;99.90;;;;;;5010951;28;20454;-78
2020/12/01 02:54:21;;;;;;;21.77;12.20;;;-4.70;99.90;;;;;;5010970;28;20444;-78
2020/12/01 02:56:48;;;;;;;23.70;12.67;;;-4.70;99.90;;;;;;5010645;28;20454;-78
2020/12/01 02:59:15;;;;;;;20.43;11.90;;;-4.70;99.90;;;;;;5010281;28;20451;-78
2020/12/01 03:01:43;;;;;;;22.40;12.97;;;-4.80;99.90;;;;;;5012596;28;20510;-78
2020/12/01 03:04:11;;;;;;;20.80;12.90;;;-4.80;99.90;;;;;;5025591;28;20505;-78
2020/12/01 03:06:37;;;;;;;21.83;12.83;;;-4.80;99.90;;;;;;5029794;28;20447;-78
2020/12/01 03:09:14;;;;;;;21.50;11.80;;;-4.80;99.90;;;;;;5030862;28;20442;-78
2020/12/01 03:11:41;;;;;;;22.83;13.10;;;-4.80;99.90;;;;;;5029804;28;20438;-78
2020/12/01 03:14:09;;;;;;;21.07;11.97;;;-4.80;99.90;;;;;;5030795;28;20959;-78
2020/12/01 03:16:36;;;;;;;18.23;11.07;;;-4.80;99.90;;;;;;5032419;28;20451;-78
2020/12/01 03:19:04;;;;;;;21.03;12.03;;;-4.80;99.90;;;;;;5030333;28;20971;-78
2020/12/01 03:21:31;;;;;;;19.63;11.73;;;-4.80;99.90;;;;;;5030694;28;20442;-78
2020/12/01 03:23:58;;;;;;;21.07;11.80;;;-4.80;99.90;;;;;;5030457;28;20525;-78
2020/12/01 03:26:25;;;;;;;21.87;12.10;;;-4.90;99.90;;;;;;5031732;28;20447;-78
2020/12/01 03:28:51;;;;;;;20.07;12.13;;;-4.90;99.90;;;;;;5028644;28;20987;-78
2020/12/01 03:31:20;;;;;;;20.03;11.97;;;-4.90;99.90;;;;;;5027980;28;20470;-77
2020/12/01 03:33:48;;;;;;;19.73;12.10;;;-4.90;99.90;;;;;;5015121;28;20444;-78
2020/12/01 03:36:17;;;;;;;19.03;12.77;;;-4.90;99.90;;;;;;5007571;28;20448;-79
2020/12/01 03:38:44;;;;;;;20.23;12.83;;;-4.90;99.90;;;;;;5008399;28;20440;-80
2020/12/01 03:41:11;;;;;;;17.53;10.40;;;-4.90;99.90;;;;;;5008087;28;20452;-77
2020/12/01 03:43:38;;;;;;;21.33;12.07;;;-5.00;99.90;;;;;;5006483;28;20957;-77
2020/12/01 03:46:05;;;;;;;18.53;11.83;;;-5.00;99.90;;;;;;5010969;28;20443;-78
2020/12/01 03:48:32;;;;;;;19.53;10.47;;;-5.00;99.90;;;;;;5012050;28;20455;-78
2020/12/01 03:50:59;;;;;;;20.17;10.87;;;-5.00;99.90;;;;;;5007709;28;20474;-78
2020/12/01 03:53:26;;;;;;;19.53;11.30;;;-5.00;99.90;;;;;;5011265;28;20467;-78
2020/12/01 03:55:54;;;;;;;16.53;10.40;;;-5.10;99.90;;;;;;5013354;28;20466;-78
2020/12/01 03:58:21;;;;;;;19.07;11.73;;;-5.00;99.90;;;;;;5012137;28;20461;-78
2020/12/01 04:00:47;;;;;;;22.10;11.97;;;-5.10;99.90;;;;;;5014164;28;20474;-78
2020/12/01 04:03:14;;;;;;;19.63;11.97;;;-5.00;99.90;;;;;;5013624;28;20496;-78
2020/12/01 04:05:41;;;;;;;18.47;11.93;;;-5.10;99.90;;;;;;5012722;28;20461;-78
2020/12/01 04:08:09;;;;;;;19.80;11.60;;;-5.10;99.90;;;;;;5014893;28;20451;-78
2020/12/01 04:10:36;;;;;;;19.47;10.93;;;-5.10;99.90;;;;;;5015282;28;20434;-78
2020/12/01 04:13:04;;;;;;;19.37;11.67;;;-5.10;99.90;;;;;;5012804;28;20451;-78
2020/12/01 04:15:31;;;;;;;16.23;9.83;;;-5.10;99.90;;;;;;5015085;28;20469;-78
2020/12/01 04:17:58;;;;;;;17.17;11.40;;;-5.20;99.90;;;;;;5016063;28;20926;-78
2020/12/01 04:20:25;;;;;;;18.63;10.53;;;-5.20;99.90;;;;;;5009575;28;20446;-78
2020/12/01 04:22:53;;;;;;;21.17;12.30;;;-5.20;99.90;;;;;;5009696;28;20561;-78
2020/12/01 04:25:23;;;;;;;19.53;11.87;;;-5.20;99.90;;;;;;5009431;28;20935;-78
2020/12/01 04:27:50;;;;;;;19.67;12.23;;;-5.20;99.90;;;;;;5009520;28;20459;-78
2020/12/01 04:30:19;;;;;;;19.03;11.33;;;-5.20;99.90;;;;;;5011173;28;20439;-78
2020/12/01 04:32:46;;;;;;;17.93;11.10;;;-5.30;99.90;;;;;;5010625;28;20439;-78
2020/12/01 04:35:14;;;;;;;18.80;10.90;;;-5.30;99.90;;;;;;5010205;28;20442;-78
2020/12/01 04:37:41;;;;;;;19.63;12.03;;;-5.30;99.90;;;;;;5010921;28;20790;-78
2020/12/01 04:40:14;;;;;;;20.90;12.00;;;-5.30;99.90;;;;;;5011277;28;20439;-78
2020/12/01 04:42:59;;;;;;;19.87;10.83;;;-5.30;99.90;;;;;;5010913;28;20468;-78
2020/12/01 04:45:26;;;;;;;22.20;12.13;;;-5.30;99.90;;;;;;5011768;28;20474;-78
2020/12/01 04:48:01;;;;;;;20.93;10.83;;;-5.30;99.90;;;;;;5009731;28;20468;-78
2020/12/01 04:50:37;;;;;;;21.70;12.07;;;-5.30;99.90;;;;;;5011809;28;20450;-78
2020/12/01 04:53:28;;;;;;;20.03;11.13;;;-5.30;99.90;;;;;;5011497;28;20462;-78
2020/12/01 04:56:17;;;;;;;20.50;11.30;;;-5.40;99.90;;;;;;5009509;28;20855;-78
2020/12/01 04:59:24;;;;;;;18.33;10.93;;;-5.40;99.90;;;;;;5011603;28;20428;-78
2020/12/01 05:01:51;;;;;;;17.73;11.10;;;-5.40;99.90;;;;;;5011832;28;20842;-78
2020/12/01 05:04:29;;;;;;;23.30;13.10;;;-5.30;99.90;;;;;;5009554;28;20493;-78
2020/12/01 05:07:16;;;;;;;26.07;14.43;;;-5.30;99.90;;;;;;5011820;28;20418;-78
2020/12/01 05:09:56;;;;;;;25.07;14.57;;;-5.20;99.90;;;;;;5013676;28;20419;-78
2020/12/01 05:12:33;;;;;;;24.53;14.50;;;-5.10;99.90;;;;;;5014363;28;20423;-78
2020/12/01 05:15:06;;;;;;;32.70;16.37;;;-5.10;99.90;;;;;;5017049;28;20965;-78
2020/12/01 05:17:57;;;;;;;28.30;15.77;;;-5.00;99.90;;;;;;5014301;28;20888;-78
2020/12/01 05:20:24;;;;;;;33.13;17.13;;;-4.90;99.90;;;;;;5016029;28;20435;-78
2020/12/01 05:22:53;;;;;;;37.10;19.47;;;-4.80;99.90;;;;;;5016440;28;20486;-78
2020/12/01 05:25:26;;;;;;;34.13;18.27;;;-4.70;99.90;;;;;;5014709;28;20458;-78
2020/12/01 05:28:12;;;;;;;34.50;19.63;;;-4.60;99.90;;;;;;5017879;28;20451;-78
2020/12/01 05:30:44;;;;;;;36.97;20.37;;;-4.50;99.90;;;;;;5016713;28;20756;-79
2020/12/01 05:33:26;;;;;;;39.10;20.57;;;-4.40;99.90;;;;;;5014394;28;20432;-78
2020/12/01 05:36:23;;;;;;;38.40;21.63;;;-4.30;99.90;;;;;;5016147;28;20424;-78
2020/12/01 05:39:03;;;;;;;32.93;19.87;;;-4.30;99.90;;;;;;5017204;28;20945;-79
2020/12/01 05:41:33;;;;;;;37.07;19.73;;;-4.20;99.90;;;;;;5015805;28;20419;-78
2020/12/01 05:44:03;;;;;;;38.83;19.50;;;-4.10;99.90;;;;;;5016371;28;20498;-79
2020/12/01 05:46:51;;;;;;;41.73;19.93;;;-4.00;99.90;;;;;;5015550;28;20256;-79
2020/12/01 05:49:40;;;;;;;41.93;21.07;;;-4.00;99.90;;;;;;5016661;28;20945;-79
2020/12/01 05:52:29;;;;;;;33.63;18.70;;;-3.90;99.90;;;;;;5016720;28;20529;-78
2020/12/01 05:55:12;;;;;;;35.67;17.43;;;-3.80;99.90;;;;;;5014628;28;20420;-79
2020/12/01 05:57:40;;;;;;;31.53;17.17;;;-3.70;99.90;;;;;;5017150;28;20193;-78
2020/12/01 06:00:15;;;;;;;42.77;21.67;;;-3.70;99.90;;;;;;5015380;28;20468;-79
2020/12/01 06:02:57;;;;;;;74.87;30.47;;;-3.60;99.90;;;;;;5012216;28;21057;-78
2020/12/01 06:05:25;;;;;;;63.73;26.10;;;-3.60;99.90;;;;;;5013702;28;20458;-78
2020/12/01 06:07:55;;;;;;;50.60;23.57;;;-3.50;99.90;;;;;;5016351;28;20271;-79
2020/12/01 06:10:53;;;;;;;61.93;26.93;;;-3.50;99.90;;;;;;5014740;28;20578;-79
2020/12/01 06:13:26;;;;;;;35.17;18.73;;;-3.40;99.90;;;;;;5013945;28;20498;-78
2020/12/01 06:16:03;;;;;;;31.23;18.53;;;-3.40;99.90;;;;;;5013627;28;20219;-79
2020/12/01 06:18:55;;;;;;;29.97;17.20;;;-3.40;99.90;;;;;;5013154;28;20196;-79
2020/12/01 06:22:06;;;;;;;34.07;19.57;;;-3.30;99.90;;;;;;5014205;28;20240;-78
2020/12/01 06:25:29;;;;;;;33.43;18.43;;;-3.30;99.90;;;;;;5012100;28;20271;-79
2020/12/01 06:28:07;;;;;;;31.47;17.93;;;-3.20;99.90;;;;;;5015133;28;20193;-79
2020/12/01 06:31:12;;;;;;;46.17;24.10;;;-3.20;99.90;;;;;;5014655;28;20184;-79
2020/12/01 06:34:05;;;;;;;39.37;19.70;;;-3.10;99.90;;;;;;5008212;28;20205;-78
2020/12/01 06:36:42;;;;;;;39.83;22.17;;;-3.10;99.90;;;;;;5009481;28;20274;-78
2020/12/01 06:39:33;;;;;;;39.93;21.00;;;-3.00;99.90;;;;;;5007756;28;20235;-78
2020/12/01 06:42:21;;;;;;;55.07;21.73;;;-3.00;99.90;;;;;;5009120;28;20205;-78
2020/12/01 06:44:57;;;;;;;43.23;22.10;;;-2.90;99.90;;;;;;5008648;28;20235;-78
2020/12/01 06:47:29;;;;;;;40.40;21.33;;;-2.90;99.90;;;;;;5007470;28;20208;-78
2020/12/01 06:50:13;;;;;;;49.70;23.00;;;-2.80;99.90;;;;;;5009093;28;20177;-78
2020/12/01 06:52:40;;;;;;;41.60;21.43;;;-2.80;99.90;;;;;;5009507;28;20232;-79
2020/12/01 06:55:27;;;;;;;42.33;22.27;;;-2.80;99.90;;;;;;5012076;28;20201;-79
2020/12/01 06:57:53;;;;;;;39.93;21.47;;;-2.80;99.90;;;;;;5015165;28;20215;-78
2020/12/01 07:00:27;;;;;;;36.03;21.43;;;-2.80;99.90;;;;;;5015914;28;20201;-79
2020/12/01 07:02:54;;;;;;;37.87;19.93;;;-2.80;99.90;;;;;;5018580;28;20670;-79
2020/12/01 07:05:31;;;;;;;39.67;21.20;;;-2.80;99.90;;;;;;5034276;28;20204;-78
2020/12/01 07:08:11;;;;;;;36.83;20.67;;;-2.80;99.90;;;;;;5035786;28;20199;-79
2020/12/01 07:10:38;;;;;;;41.67;20.73;;;-2.80;99.90;;;;;;5034161;28;20677;-79
2020/12/01 07:14:10;;;;;;;37.50;21.13;;;-2.80;99.90;;;;;;5035463;28;20212;-79
2020/12/01 07:16:54;;;;;;;36.73;20.30;;;-2.80;99.90;;;;;;4995245;28;20204;-79
2020/12/01 07:19:35;;;;;;;43.03;23.27;;;-2.80;99.90;;;;;;4997941;28;20555;-79
2020/12/01 07:22:23;;;;;;;47.30;25.40;;;-2.80;99.90;;;;;;4997394;28;20205;-78
2020/12/01 07:25:00;;;;;;;44.33;23.97;;;-2.80;99.90;;;;;;4996313;28;20590;-79
2020/12/01 07:27:54;;;;;;;45.33;24.20;;;-2.70;99.90;;;;;;4998562;28;20199;-78
2020/12/01 07:30:26;;;;;;;45.67;23.47;;;-2.60;99.90;;;;;;5014811;28;20205;-81
2020/12/01 07:32:58;;;;;;;39.53;22.80;;;-2.60;99.90;;;;;;4996965;28;20231;-79
2020/12/01 07:35:35;;;;;;;39.17;22.53;;;-2.50;99.90;;;;;;4998796;28;20216;-79
2020/12/01 07:38:33;;;;;;;35.10;20.00;;;-2.40;99.90;;;;;;4995788;28;20193;-78
2020/12/01 07:41:23;;;;;;;36.87;20.50;;;-2.30;99.90;;;;;;4994228;28;20216;-79
2020/12/01 07:44:10;;;;;;;32.83;19.37;;;-2.20;99.90;;;;;;4993625;28;20279;-78
2020/12/01 07:49:22;;;;;;;33.10;18.87;;;-2.00;99.90;;;;;;5013842;28;20276;-79
2020/12/01 07:51:56;;;;;;;34.97;19.83;;;-1.90;99.90;;;;;;5015012;28;20629;-79
2020/12/01 07:54:25;;;;;;;32.00;18.07;;;-1.90;99.90;;;;;;5012278;28;20678;-79
2020/12/01 07:56:52;;;;;;;31.03;18.60;;;-1.90;99.90;;;;;;5012142;28;20279;-79
2020/12/01 07:59:19;;;;;;;31.70;18.03;;;-1.80;99.90;;;;;;5013278;28;20251;-79
2020/12/01 08:01:46;;;;;;;33.23;19.83;;;-1.80;99.90;;;;;;5011383;28;20236;-79
2020/12/01 08:04:16;;;;;;;31.47;18.20;;;-1.80;99.90;;;;;;5012521;28;20586;-79
2020/12/01 08:06:45;;;;;;;33.40;19.17;;;-1.80;99.90;;;;;;5012322;28;20377;-79
2020/12/01 08:09:23;;;;;;;29.13;18.43;;;-1.80;99.90;;;;;;5012471;28;20201;-79
2020/12/01 08:11:55;;;;;;;28.43;17.40;;;-1.80;99.90;;;;;;5013743;28;20288;-79
2020/12/01 08:14:22;;;;;;;27.37;18.07;;;-1.80;99.90;;;;;;5012704;28;20189;-79
2020/12/01 08:17:12;;;;;;;31.90;18.57;;;-1.80;99.90;;;;;;5010041;28;20849;-79
2020/12/01 08:19:40;;;;;;;27.50;16.50;;;-1.80;99.90;;;;;;5014805;28;20204;-79
2020/12/01 08:22:09;;;;;;;29.93;18.07;;;-1.70;99.90;;;;;;5012671;28;20205;-79
2020/12/01 08:24:39;;;;;;;26.30;16.60;;;-1.70;99.90;;;;;;5010871;28;20221;-79
2020/12/01 08:27:23;;;;;;;30.37;18.47;;;-1.70;99.90;;;;;;5012172;28;20862;-79
2020/12/01 08:29:54;;;;;;;27.30;16.33;;;-1.60;99.90;;;;;;5012202;28;20209;-79
2020/12/01 08:32:37;;;;;;;28.77;17.97;;;-1.60;99.90;;;;;;5012809;28;20263;-79
2020/12/01 08:35:35;;;;;;;28.37;17.63;;;-1.50;99.90;;;;;;4992947;28;20277;-78
2020/12/01 08:38:12;;;;;;;29.13;17.27;;;-1.50;99.90;;;;;;4991551;28;20272;-79
2020/12/01 08:41:07;;;;;;;27.90;16.50;;;-1.50;99.90;;;;;;4994477;28;20535;-79
2020/12/01 08:43:52;;;;;;;25.30;16.30;;;-1.40;99.90;;;;;;4994218;28;20578;-79
2020/12/01 08:46:27;;;;;;;26.70;17.47;;;-1.30;99.90;;;;;;5001871;28;20185;-79
2020/12/01 08:49:06;;;;;;;28.70;17.40;;;-1.20;99.90;;;;;;5017426;28;20201;-79
2020/12/01 08:51:50;;;;;;;28.23;16.80;;;-1.00;99.90;;;;;;5017424;28;20217;-80
2020/12/01 08:54:28;;;;;;;29.37;18.30;;;-0.90;99.90;;;;;;5016073;28;20189;-79
2020/12/01 08:57:04;;;;;;;30.20;17.73;;;-0.80;99.90;;;;;;5018847;28;20189;-79
2020/12/01 09:00:04;;;;;;;30.23;18.17;;;-0.60;99.90;;;;;;5016408;28;20201;-79
2020/12/01 09:02:43;;;;;;;24.57;15.73;;;-0.50;99.90;;;;;;5020370;28;20229;-79
2020/12/01 09:05:29;;;;;;;28.17;17.33;;;-0.40;99.90;;;;;;5041010;28;20188;-79
2020/12/01 09:08:41;;;;;;;28.77;16.63;;;-0.20;99.90;;;;;;5041361;28;20731;-79
2020/12/01 09:16:58;;;;;;;28.43;16.50;;;0.30;99.90;;;;;;5041230;28;20660;-79
2020/12/01 09:22:45;;;;;;;33.13;19.40;;;0.50;99.90;;;;;;5037011;28;20192;-79
2020/12/01 09:25:20;;;;;;;34.73;19.27;;;0.50;99.90;;;;;;4998754;28;20610;-79
2020/12/01 09:27:48;;;;;;;31.23;19.67;;;0.50;99.90;;;;;;4998761;28;20593;-79
2020/12/01 09:30:38;;;;;;;31.63;19.37;;;0.50;99.90;;;;;;4997924;28;20268;-79
2020/12/01 09:33:09;;;;;;;33.80;19.07;;;0.40;99.90;;;;;;5009204;28;20209;-79
2020/12/01 09:35:36;;;;;;;28.57;19.43;;;0.40;99.90;;;;;;4995884;28;20209;-79
2020/12/01 09:38:03;;;;;;;28.77;18.87;;;0.50;99.90;;;;;;4993539;28;20206;-79
2020/12/01 09:40:32;;;;;;;31.80;19.63;;;0.60;99.90;;;;;;4994928;28;20205;-80
2020/12/01 09:43:26;;;;;;;31.23;20.00;;;0.60;99.90;;;;;;4994431;28;20213;-80
2020/12/01 09:45:58;;;;;;;31.13;20.67;;;0.50;99.90;;;;;;4990960;28;20233;-80
2020/12/01 09:48:30;;;;;;;37.27;21.93;;;0.40;99.90;;;;;;4973424;28;20210;-80
2020/12/01 09:50:57;;;;;;;30.67;21.47;;;0.40;99.90;;;;;;4973630;28;20632;-80
2020/12/01 09:56:01;;;;;;;35.03;22.47;;;0.20;99.90;;;;;;4989223;28;20706;-80
2020/12/01 09:59:15;;;;;;;34.47;21.47;;;0.10;99.90;;;;;;4973178;28;20201;-80
2020/12/01 10:09:46;;;;;;;37.90;22.67;;;0.40;99.90;;;;;;5015533;28;20193;-80
2020/12/01 10:12:26;;;;;;;39.30;22.07;;;0.40;99.90;;;;;;5018604;28;20188;-80
2020/12/01 10:17:52;;;;;;;38.17;22.90;;;0.40;99.90;;;;;;5012671;28;20181;-80
2020/12/01 10:36:29;;;;;;;35.93;22.00;;;0.70;99.90;;;;;;5009918;28;20546;-81
2020/12/01 10:38:59;;;;;;;36.27;22.47;;;0.80;99.90;;;;;;5010511;28;20223;-81
2020/12/01 10:41:32;;;;;;;35.13;22.00;;;0.80;99.90;;;;;;5010484;28;20231;-80
2020/12/01 10:44:01;;;;;;;33.57;22.07;;;0.90;99.90;;;;;;5009263;28;20639;-81
2020/12/01 10:46:29;;;;;;;33.53;22.57;;;1.00;99.90;;;;;;5011536;28;20201;-82
2020/12/01 10:48:56;;;;;;;35.23;21.70;;;1.10;99.90;;;;;;5010133;28;20207;-81
2020/12/01 10:51:22;;;;;;;36.80;22.13;;;1.20;99.90;;;;;;5009409;28;20205;-81
2020/12/01 10:53:49;;;;;;;38.20;21.87;;;1.30;99.90;;;;;;5010316;28;20693;-81
2020/12/01 10:56:16;;;;;;;37.53;22.20;;;1.40;99.90;;;;;;5011138;28;20212;-81
2020/12/01 10:58:43;;;;;;;37.47;23.37;;;1.40;99.90;;;;;;5008761;28;20336;-80
2020/12/01 11:01:10;;;;;;;34.90;21.63;;;1.40;99.90;;;;;;5008853;28;20200;-81
2020/12/01 11:03:36;;;;;;;35.93;22.33;;;1.40;99.90;;;;;;5020135;28;20212;-81
2020/12/01 11:06:04;;;;;;;35.40;22.20;;;1.40;99.90;;;;;;5027098;28;20552;-81
2020/12/01 11:08:30;;;;;;;36.27;21.80;;;1.30;99.90;;;;;;5028682;28;20618;-81
2020/12/01 11:10:57;;;;;;;37.50;22.20;;;1.30;99.90;;;;;;5028698;28;20211;-81
2020/12/01 11:13:24;;;;;;;32.93;21.80;;;1.30;99.90;;;;;;5027447;28;20583;-81
2020/12/01 11:15:50;;;;;;;32.17;20.77;;;1.30;99.90;;;;;;5030417;28;20208;-80
2020/12/01 11:18:17;;;;;;;33.07;20.33;;;1.30;99.90;;;;;;5029308;28;20208;-81
2020/12/01 11:20:44;;;;;;;36.40;21.73;;;1.30;99.90;;;;;;5027147;28;20215;-81
2020/12/01 11:23:11;;;;;;;34.57;21.73;;;1.30;99.90;;;;;;5028694;28;20644;-81
2020/12/01 11:25:38;;;;;;;35.10;20.87;;;1.40;99.90;;;;;;5029592;28;20200;-81
2020/12/01 11:28:05;;;;;;;33.97;20.77;;;1.40;99.90;;;;;;5027484;28;20564;-81
2020/12/01 11:30:31;;;;;;;33.90;20.83;;;1.40;99.90;;;;;;5029106;28;20193;-81
2020/12/01 11:32:58;;;;;;;31.83;21.07;;;1.50;99.90;;;;;;5028403;28;20204;-81
2020/12/01 11:35:25;;;;;;;32.30;20.33;;;1.60;99.90;;;;;;5026862;28;20203;-81
2020/12/01 11:37:52;;;;;;;33.80;21.33;;;1.60;99.90;;;;;;5028990;28;20203;-81
2020/12/01 11:40:20;;;;;;;31.13;18.93;;;1.70;99.90;;;;;;5028102;28;20684;-81
2020/12/01 11:42:47;;;;;;;31.23;18.70;;;1.70;99.90;;;;;;5027744;28;20200;-80
2020/12/01 11:45:17;;;;;;;35.27;21.23;;;1.70;99.90;;;;;;5028564;28;20629;-81
2020/12/01 11:47:44;;;;;;;36.67;20.60;;;1.70;99.90;;;;;;5011996;28;20208;-81
2020/12/01 11:50:11;;;;;;;36.33;20.30;;;1.60;99.90;;;;;;5007837;28;20208;-81
2020/12/01 11:52:38;;;;;;;35.60;21.47;;;1.60;99.90;;;;;;5009406;28;20221;-81
2020/12/01 11:55:21;;;;;;;34.87;20.13;;;1.60;99.90;;;;;;5010566;28;20213;-81
2020/12/01 11:57:48;;;;;;;31.10;19.30;;;1.50;99.90;;;;;;5007687;28;20201;-81
2020/12/01 12:00:19;;;;;;;31.07;19.00;;;1.50;99.90;;;;;;5009150;28;20205;-81
2020/12/01 12:02:45;;;;;;;28.57;17.00;;;1.40;99.90;;;;;;5011820;28;20236;-81
2020/12/01 12:05:13;;;;;;;33.50;19.13;;;1.40;99.90;;;;;;5027425;28;20223;-81
2020/12/01 12:07:40;;;;;;;32.13;20.40;;;1.40;99.90;;;;;;5029009;28;20530;-81
2020/12/01 12:10:07;;;;;;;32.10;19.30;;;1.40;99.90;;;;;;5029382;28;20649;-81
2020/12/01 12:12:34;;;;;;;32.20;19.20;;;1.50;99.90;;;;;;5027207;28;20424;-81
2020/12/01 12:15:01;;;;;;;30.93;19.43;;;1.50;99.90;;;;;;5028900;28;20212;-81
2020/12/01 12:17:27;;;;;;;33.80;20.13;;;1.50;99.90;;;;;;5029054;28;20208;-81
2020/12/01 12:19:54;;;;;;;30.73;19.43;;;1.50;99.90;;;;;;5032472;28;20203;-80
2020/12/01 12:22:21;;;;;;;29.47;18.40;;;1.50;99.90;;;;;;5032784;28;20196;-81
2020/12/01 12:24:47;;;;;;;32.90;20.20;;;1.60;99.90;;;;;;5033063;28;20250;-81
2020/12/01 12:27:14;;;;;;;31.93;19.00;;;1.50;99.90;;;;;;5031752;28;20254;-81
2020/12/01 12:29:41;;;;;;;33.23;19.23;;;1.60;99.90;;;;;;5033067;28;20632;-81
2020/12/01 12:32:08;;;;;;;32.80;20.23;;;1.60;99.90;;;;;;5032701;28;20703;-81
2020/12/01 12:34:34;;;;;;;31.70;20.40;;;1.60;99.90;;;;;;5031278;28;20212;-81
2020/12/01 12:37:01;;;;;;;31.57;19.80;;;1.60;99.90;;;;;;5024500;28;20469;-81
2020/12/01 12:39:28;;;;;;;35.27;20.00;;;1.50;99.90;;;;;;5014728;28;20212;-81
2020/12/01 12:41:55;;;;;;;41.50;21.10;;;1.40;99.90;;;;;;5012482;28;20204;-81
2020/12/01 12:44:21;;;;;;;39.17;20.53;;;1.40;99.90;;;;;;5013156;28;20231;-81
2020/12/01 12:46:48;;;;;;;35.07;20.83;;;1.40;99.90;;;;;;5012086;28;20620;-81
2020/12/01 12:49:15;;;;;;;37.20;21.07;;;1.50;99.90;;;;;;5011746;28;20201;-81
2020/12/01 12:51:41;;;;;;;34.10;20.13;;;1.50;99.90;;;;;;5012264;28;20209;-81
2020/12/01 12:54:08;;;;;;;37.03;20.77;;;1.50;99.90;;;;;;5013195;28;20271;-81
2020/12/01 12:56:35;;;;;;;34.63;21.10;;;1.50;99.90;;;;;;5012071;28;20663;-80
2020/12/01 12:59:02;;;;;;;34.77;21.33;;;1.60;99.90;;;;;;5013290;28;20274;-80
2020/12/01 13:01:29;;;;;;;37.87;22.07;;;1.60;99.90;;;;;;5012488;28;20236;-81
2020/12/01 13:03:56;;;;;;;36.17;20.77;;;1.60;99.90;;;;;;5011351;28;20212;-80
2020/12/01 13:06:23;;;;;;;32.47;20.07;;;1.60;99.90;;;;;;5012402;28;20256;-81
2020/12/01 13:08:49;;;;;;;33.30;19.47;;;1.60;99.90;;;;;;4995484;28;20209;-80
2020/12/01 13:11:16;;;;;;;37.53;20.77;;;1.60;99.90;;;;;;5006213;28;20642;-80
2020/12/01 13:13:43;;;;;;;36.03;21.37;;;1.60;99.90;;;;;;5008840;28;20209;-81
2020/12/01 13:16:10;;;;;;;35.10;19.90;;;1.60;99.90;;;;;;5012886;28;20201;-81
2020/12/01 13:18:38;;;;;;;35.17;20.03;;;1.60;99.90;;;;;;5012187;28;20634;-80
2020/12/01 13:21:04;;;;;;;30.40;19.73;;;1.70;99.90;;;;;;5010926;28;20200;-80
2020/12/01 13:23:31;;;;;;;33.63;20.17;;;1.70;99.90;;;;;;5010449;28;20221;-81
2020/12/01 13:25:58;;;;;;;35.67;20.20;;;1.70;99.90;;;;;;5009246;28;20197;-81
2020/12/01 13:28:25;;;;;;;39.30;21.20;;;1.70;99.90;;;;;;5010242;28;20201;-80
2020/12/01 13:30:52;;;;;;;37.77;20.63;;;1.70;99.90;;;;;;5010019;28;20680;-81
2020/12/01 13:33:19;;;;;;;34.00;20.80;;;1.60;99.90;;;;;;5009011;28;20204;-80
2020/12/01 13:35:46;;;;;;;35.03;21.27;;;1.60;99.90;;;;;;5011483;28;20204;-81
2020/12/01 13:38:13;;;;;;;36.47;22.00;;;1.50;99.90;;;;;;5006081;28;20205;-81
2020/12/01 13:40:39;;;;;;;37.50;21.67;;;1.50;99.90;;;;;;5022014;28;20204;-80